map of CLO home
CLO - Airport
Location
City:  Cali, Valle del Cauca, Colombia
Near (Alt.):Santiago de Cali, Palmira
Name:Alfonso Bonilla Aragón International Airport
ICAO:SKCL
IATA:CLO

Details
Type:Airport (Aerodrome, Airfield)
Use:International (customs port of entry)
Latitude:3°32'35"N (3.543056)
Longitude:76°22'54"W (-76.381666)
Elevation:3162 ft (964 m)
Variation:5.58°W (WMM2015 magnetic declination)
-0.15° annual change
Runways:1
Longest:9842 × 148 ft (3000 × 45 m), paved

Time
Time Zone:UTC-5
Local Time:

Weather
METAR:SKCL 131600Z 00000KT 8000 SCT017 25/18 A3007 RMK/HZ
TAF:SKCL 131700Z 1318/1418 31008KT 9999 SCT020
BECMG 1323/1401 VRB02KT FEW017 BKN120
TEMPO 1410/1413 8000 TX30/1319Z TN19/1411Z

Related Locations
Nearby:
Farthest:PDO: 12433 mi / 20008 km
Pendopo, SS, ID

Find:

   beyond  
but within

Other Information
Maps:
NOTAMs:
Links:
Sources:

  
flag of Colombia
flag of Valle del Cauca
flag of Cali
  

Sectional Chart

Flight Planning
at skyvector.com

Satellite Image

Google Maps Satellite view

 

Copyright © 2004-2017 Karl L. Swartz. All rights reserved.
The Great Circle Mapper name and logo are trademarks of the Great Circle Mapper.
All other trademarks mentioned herein belong to their respective owners.
Please see credits for attibutions and further copyright information.

  Follow gcmap on Facebook Follow gcmap on Twitter Follow gcmap on Google+ GCmap on LinkedIn

hCard Microformat

Geo Microformat